sensor_id;sensor_type;location;lat;lon;timestamp;temperature;humidity
12130;DHT22;6128;59.340;18.040;2022-12-04T00:01:31;0.50;99.90
12130;DHT22;6128;59.340;18.040;2022-12-04T00:03:59;0.50;99.90
12130;DHT22;6128;59.340;18.040;2022-12-04T00:06:29;0.50;99.90
12130;DHT22;6128;59.340;18.040;2022-12-04T00:08:58;0.40;99.90
12130;DHT22;6128;59.340;18.040;2022-12-04T00:11:28;0.50;99.90
12130;DHT22;6128;59.340;18.040;2022-12-04T00:13:56;0.40;99.90
12130;DHT22;6128;59.340;18.040;2022-12-04T00:16:28;0.50;99.90
12130;DHT22;6128;59.340;18.040;2022-12-04T00:19:09;0.40;99.90
12130;DHT22;6128;59.340;18.040;2022-12-04T00:21:38;0.40;99.90
12130;DHT22;6128;59.340;18.040;2022-12-04T00:24:05;0.40;99.90
12130;DHT22;6128;59.340;18.040;2022-12-04T00:26:33;0.40;99.90
12130;DHT22;6128;59.340;18.040;2022-12-04T00:29:01;0.40;99.90
12130;DHT22;6128;59.340;18.040;2022-12-04T00:31:43;0.30;99.90
12130;DHT22;6128;59.340;18.040;2022-12-04T00:34:20;0.30;99.90
12130;DHT22;6128;59.340;18.040;2022-12-04T00:36:50;0.30;99.90
12130;DHT22;6128;59.340;18.040;2022-12-04T00:39:17;0.30;99.90
12130;DHT22;6128;59.340;18.040;2022-12-04T00:41:45;0.30;99.90
12130;DHT22;6128;59.340;18.040;2022-12-04T00:44:13;0.30;99.90
12130;DHT22;6128;59.340;18.040;2022-12-04T00:46:43;0.20;99.90
12130;DHT22;6128;59.340;18.040;2022-12-04T00:49:10;0.20;99.90
12130;DHT22;6128;59.340;18.040;2022-12-04T00:51:38;0.20;99.90
12130;DHT22;6128;59.340;18.040;2022-12-04T00:54:10;0.20;99.90
12130;DHT22;6128;59.340;18.040;2022-12-04T00:56:38;0.20;99.90
12130;DHT22;6128;59.340;18.040;2022-12-04T00:59:07;0.20;99.90
12130;DHT22;6128;59.340;18.040;2022-12-04T01:01:35;0.10;99.90
12130;DHT22;6128;59.340;18.040;2022-12-04T01:04:08;0.10;99.90
12130;DHT22;6128;59.340;18.040;2022-12-04T01:06:36;0.00;99.90
12130;DHT22;6128;59.340;18.040;2022-12-04T01:09:04;0.00;99.90
12130;DHT22;6128;59.340;18.040;2022-12-04T01:11:33;0.00;99.90
12130;DHT22;6128;59.340;18.040;2022-12-04T01:14:01;0.00;99.90
12130;DHT22;6128;59.340;18.040;2022-12-04T01:16:42;0.00;99.90
12130;DHT22;6128;59.340;18.040;2022-12-04T01:19:11;0.00;99.90
12130;DHT22;6128;59.340;18.040;2022-12-04T01:21:43;-0.10;99.90
12130;DHT22;6128;59.340;18.040;2022-12-04T01:24:11;-0.10;99.90
12130;DHT22;6128;59.340;18.040;2022-12-04T01:26:43;-0.10;99.90
12130;DHT22;6128;59.340;18.040;2022-12-04T01:29:14;-0.10;99.90
12130;DHT22;6128;59.340;18.040;2022-12-04T01:31:46;-0.20;99.90
12130;DHT22;6128;59.340;18.040;2022-12-04T01:34:15;-0.20;99.90
12130;DHT22;6128;59.340;18.040;2022-12-04T01:36:43;-0.20;99.90
12130;DHT22;6128;59.340;18.040;2022-12-04T01:39:10;-0.20;99.90
12130;DHT22;6128;59.340;18.040;2022-12-04T01:41:40;-0.30;99.90
12130;DHT22;6128;59.340;18.040;2022-12-04T01:44:09;-0.30;99.90
12130;DHT22;6128;59.340;18.040;2022-12-04T01:46:37;-0.20;99.90
12130;DHT22;6128;59.340;18.040;2022-12-04T01:49:23;-0.20;99.90
12130;DHT22;6128;59.340;18.040;2022-12-04T01:51:54;-0.20;99.90
12130;DHT22;6128;59.340;18.040;2022-12-04T01:54:26;-0.20;99.90
12130;DHT22;6128;59.340;18.040;2022-12-04T01:57:00;-0.20;99.90
12130;DHT22;6128;59.340;18.040;2022-12-04T01:59:38;-0.20;99.90
12130;DHT22;6128;59.340;18.040;2022-12-04T02:02:09;-0.20;99.90
12130;DHT22;6128;59.340;18.040;2022-12-04T02:04:55;-0.20;99.90
12130;DHT22;6128;59.340;18.040;2022-12-04T02:07:23;-0.20;99.90
12130;DHT22;6128;59.340;18.040;2022-12-04T02:09:51;-0.20;99.90
12130;DHT22;6128;59.340;18.040;2022-12-04T02:12:25;-0.20;99.90
12130;DHT22;6128;59.340;18.040;2022-12-04T02:15:03;-0.30;99.90
12130;DHT22;6128;59.340;18.040;2022-12-04T02:17:37;-0.30;99.90
12130;DHT22;6128;59.340;18.040;2022-12-04T02:20:23;-0.30;99.90
12130;DHT22;6128;59.340;18.040;2022-12-04T02:23:16;-0.40;99.90
12130;DHT22;6128;59.340;18.040;2022-12-04T02:25:54;-0.40;99.90
12130;DHT22;6128;59.340;18.040;2022-12-04T02:28:31;-0.40;99.90
12130;DHT22;6128;59.340;18.040;2022-12-04T02:31:02;-0.40;99.90
12130;DHT22;6128;59.340;18.040;2022-12-04T02:33:38;-0.30;99.90
12130;DHT22;6128;59.340;18.040;2022-12-04T02:36:12;-0.30;99.90
12130;DHT22;6128;59.340;18.040;2022-12-04T02:38:42;-0.30;99.90
12130;DHT22;6128;59.340;18.040;2022-12-04T02:41:17;-0.30;99.90
12130;DHT22;6128;59.340;18.040;2022-12-04T02:43:52;-0.30;99.90
12130;DHT22;6128;59.340;18.040;2022-12-04T02:46:24;-0.30;99.90
12130;DHT22;6128;59.340;18.040;2022-12-04T02:49:00;-0.30;99.90
12130;DHT22;6128;59.340;18.040;2022-12-04T02:51:32;-0.30;99.90
12130;DHT22;6128;59.340;18.040;2022-12-04T02:54:04;-0.40;99.90
12130;DHT22;6128;59.340;18.040;2022-12-04T02:56:36;-0.30;99.90
12130;DHT22;6128;59.340;18.040;2022-12-04T02:59:13;-0.40;99.90
12130;DHT22;6128;59.340;18.040;2022-12-04T03:01:44;-0.40;99.90
12130;DHT22;6128;59.340;18.040;2022-12-04T03:04:15;-0.30;99.90
12130;DHT22;6128;59.340;18.040;2022-12-04T03:06:47;-0.30;99.90
12130;DHT22;6128;59.340;18.040;2022-12-04T03:09:19;-0.30;99.90
12130;DHT22;6128;59.340;18.040;2022-12-04T03:11:51;-0.40;99.90
12130;DHT22;6128;59.340;18.040;2022-12-04T03:14:25;-0.40;99.90
12130;DHT22;6128;59.340;18.040;2022-12-04T03:16:59;-0.40;99.90
12130;DHT22;6128;59.340;18.040;2022-12-04T03:19:32;-0.40;99.90
12130;DHT22;6128;59.340;18.040;2022-12-04T03:22:04;-0.40;99.90
12130;DHT22;6128;59.340;18.040;2022-12-04T03:24:36;-0.50;99.90
12130;DHT22;6128;59.340;18.040;2022-12-04T03:27:10;-0.40;99.90
12130;DHT22;6128;59.340;18.040;2022-12-04T03:29:42;-0.50;99.90
12130;DHT22;6128;59.340;18.040;2022-12-04T03:32:13;-0.50;99.90
12130;DHT22;6128;59.340;18.040;2022-12-04T03:34:54;-0.50;99.90
12130;DHT22;6128;59.340;18.040;2022-12-04T03:37:26;-0.60;99.90
12130;DHT22;6128;59.340;18.040;2022-12-04T03:40:02;-0.60;99.90
12130;DHT22;6128;59.340;18.040;2022-12-04T03:42:38;-0.60;99.90
12130;DHT22;6128;59.340;18.040;2022-12-04T03:45:19;-0.60;99.90
12130;DHT22;6128;59.340;18.040;2022-12-04T03:47:54;-0.60;99.90
12130;DHT22;6128;59.340;18.040;2022-12-04T03:50:31;-0.60;99.90
12130;DHT22;6128;59.340;18.040;2022-12-04T03:53:05;-0.60;99.90
12130;DHT22;6128;59.340;18.040;2022-12-04T03:55:38;-0.70;99.90
12130;DHT22;6128;59.340;18.040;2022-12-04T03:58:10;-0.70;99.90
12130;DHT22;6128;59.340;18.040;2022-12-04T04:00:42;-0.70;99.90
12130;DHT22;6128;59.340;18.040;2022-12-04T04:03:13;-0.80;99.90
12130;DHT22;6128;59.340;18.040;2022-12-04T04:05:45;-0.80;99.90
12130;DHT22;6128;59.340;18.040;2022-12-04T04:08:16;-0.80;99.90
12130;DHT22;6128;59.340;18.040;2022-12-04T04:11:01;-0.80;99.90
12130;DHT22;6128;59.340;18.040;2022-12-04T04:13:35;-0.80;99.90
12130;DHT22;6128;59.340;18.040;2022-12-04T04:16:27;-0.80;99.90
12130;DHT22;6128;59.340;18.040;2022-12-04T04:19:15;-0.80;99.90
12130;DHT22;6128;59.340;18.040;2022-12-04T04:22:03;-0.80;99.90
12130;DHT22;6128;59.340;18.040;2022-12-04T04:24:54;-0.90;99.90
12130;DHT22;6128;59.340;18.040;2022-12-04T04:27:22;-0.90;99.90
12130;DHT22;6128;59.340;18.040;2022-12-04T04:29:50;-0.90;99.90
12130;DHT22;6128;59.340;18.040;2022-12-04T04:32:30;-0.90;99.90
12130;DHT22;6128;59.340;18.040;2022-12-04T04:35:09;-0.90;99.90
12130;DHT22;6128;59.340;18.040;2022-12-04T04:37:42;-1.00;99.90
12130;DHT22;6128;59.340;18.040;2022-12-04T04:40:19;-1.00;99.90
12130;DHT22;6128;59.340;18.040;2022-12-04T04:42:53;-1.00;99.90
12130;DHT22;6128;59.340;18.040;2022-12-04T04:45:26;-1.00;99.90
12130;DHT22;6128;59.340;18.040;2022-12-04T04:48:07;-1.00;99.90
12130;DHT22;6128;59.340;18.040;2022-12-04T04:50:36;-1.00;99.90
12130;DHT22;6128;59.340;18.040;2022-12-04T04:53:08;-1.00;99.90
12130;DHT22;6128;59.340;18.040;2022-12-04T04:55:37;-1.00;99.90
12130;DHT22;6128;59.340;18.040;2022-12-04T04:58:07;-1.00;99.90
12130;DHT22;6128;59.340;18.040;2022-12-04T05:00:35;-1.00;99.90
12130;DHT22;6128;59.340;18.040;2022-12-04T05:03:04;-1.00;99.90
12130;DHT22;6128;59.340;18.040;2022-12-04T05:05:31;-1.00;99.90
12130;DHT22;6128;59.340;18.040;2022-12-04T05:08:00;-1.00;99.90
12130;DHT22;6128;59.340;18.040;2022-12-04T05:10:27;-1.00;99.90
12130;DHT22;6128;59.340;18.040;2022-12-04T05:12:55;-0.90;99.90
12130;DHT22;6128;59.340;18.040;2022-12-04T05:15:25;-0.90;99.90
12130;DHT22;6128;59.340;18.040;2022-12-04T05:17:59;-0.90;99.90
12130;DHT22;6128;59.340;18.040;2022-12-04T05:20:31;-0.90;99.90
12130;DHT22;6128;59.340;18.040;2022-12-04T05:22:57;-0.90;99.90
12130;DHT22;6128;59.340;18.040;2022-12-04T05:25:26;-1.00;99.90
12130;DHT22;6128;59.340;18.040;2022-12-04T05:27:54;-1.00;99.90
12130;DHT22;6128;59.340;18.040;2022-12-04T05:30:21;-1.00;99.90
12130;DHT22;6128;59.340;18.040;2022-12-04T05:32:49;-1.00;99.90
12130;DHT22;6128;59.340;18.040;2022-12-04T05:35:16;-1.00;99.90
12130;DHT22;6128;59.340;18.040;2022-12-04T05:37:46;-1.00;99.90
12130;DHT22;6128;59.340;18.040;2022-12-04T05:40:13;-1.00;99.90
12130;DHT22;6128;59.340;18.040;2022-12-04T05:42:41;-1.00;99.90
12130;DHT22;6128;59.340;18.040;2022-12-04T05:45:09;-0.90;99.90
12130;DHT22;6128;59.340;18.040;2022-12-04T05:47:37;-0.90;99.90
12130;DHT22;6128;59.340;18.040;2022-12-04T05:50:07;-0.90;99.90
12130;DHT22;6128;59.340;18.040;2022-12-04T05:52:35;-0.90;99.90
12130;DHT22;6128;59.340;18.040;2022-12-04T05:55:08;-0.90;99.90
12130;DHT22;6128;59.340;18.040;2022-12-04T05:57:35;-0.90;99.90
12130;DHT22;6128;59.340;18.040;2022-12-04T06:00:06;-0.90;99.90
12130;DHT22;6128;59.340;18.040;2022-12-04T06:02:37;-0.90;99.90
12130;DHT22;6128;59.340;18.040;2022-12-04T06:05:09;-0.90;99.90
12130;DHT22;6128;59.340;18.040;2022-12-04T06:07:37;-1.00;99.90
12130;DHT22;6128;59.340;18.040;2022-12-04T06:10:07;-0.90;99.90
12130;DHT22;6128;59.340;18.040;2022-12-04T06:12:34;-1.00;99.90
12130;DHT22;6128;59.340;18.040;2022-12-04T06:15:03;-1.00;99.90
12130;DHT22;6128;59.340;18.040;2022-12-04T06:17:30;-1.00;99.90
12130;DHT22;6128;59.340;18.040;2022-12-04T06:20:01;-1.00;99.90
12130;DHT22;6128;59.340;18.040;2022-12-04T06:22:29;-1.00;99.90
12130;DHT22;6128;59.340;18.040;2022-12-04T06:24:58;-1.00;99.90
12130;DHT22;6128;59.340;18.040;2022-12-04T06:27:28;-1.00;99.90
12130;DHT22;6128;59.340;18.040;2022-12-04T06:29:56;-1.00;99.90
12130;DHT22;6128;59.340;18.040;2022-12-04T06:32:23;-1.00;99.90
12130;DHT22;6128;59.340;18.040;2022-12-04T06:34:52;-1.00;99.90
12130;DHT22;6128;59.340;18.040;2022-12-04T06:37:21;-1.00;99.90
12130;DHT22;6128;59.340;18.040;2022-12-04T06:39:52;-1.00;99.90
12130;DHT22;6128;59.340;18.040;2022-12-04T06:42:21;-1.00;99.90
12130;DHT22;6128;59.340;18.040;2022-12-04T06:44:51;-1.00;99.90
12130;DHT22;6128;59.340;18.040;2022-12-04T06:47:19;-1.00;99.90
12130;DHT22;6128;59.340;18.040;2022-12-04T06:49:48;-1.00;99.90
12130;DHT22;6128;59.340;18.040;2022-12-04T06:52:17;-1.00;99.90
12130;DHT22;6128;59.340;18.040;2022-12-04T06:54:45;-1.00;99.90
12130;DHT22;6128;59.340;18.040;2022-12-04T06:57:15;-1.00;99.90
12130;DHT22;6128;59.340;18.040;2022-12-04T06:59:43;-1.00;99.90
12130;DHT22;6128;59.340;18.040;2022-12-04T07:02:13;-1.00;99.90
12130;DHT22;6128;59.340;18.040;2022-12-04T07:04:41;-1.00;99.90
12130;DHT22;6128;59.340;18.040;2022-12-04T07:07:08;-1.00;99.90
12130;DHT22;6128;59.340;18.040;2022-12-04T07:09:36;-0.90;99.90
12130;DHT22;6128;59.340;18.040;2022-12-04T07:12:06;-1.00;99.90
12130;DHT22;6128;59.340;18.040;2022-12-04T07:14:33;-1.00;99.90
12130;DHT22;6128;59.340;18.040;2022-12-04T07:17:01;-1.00;99.90
12130;DHT22;6128;59.340;18.040;2022-12-04T07:19:31;-1.00;99.90
12130;DHT22;6128;59.340;18.040;2022-12-04T07:21:58;-1.00;99.90
12130;DHT22;6128;59.340;18.040;2022-12-04T07:24:25;-1.00;99.90
12130;DHT22;6128;59.340;18.040;2022-12-04T07:26:53;-1.10;99.90
12130;DHT22;6128;59.340;18.040;2022-12-04T07:29:20;-1.10;99.90
12130;DHT22;6128;59.340;18.040;2022-12-04T07:31:48;-1.10;99.90
12130;DHT22;6128;59.340;18.040;2022-12-04T07:34:15;-1.20;99.90
12130;DHT22;6128;59.340;18.040;2022-12-04T07:36:45;-1.20;99.90
12130;DHT22;6128;59.340;18.040;2022-12-04T07:39:15;-1.20;99.90
12130;DHT22;6128;59.340;18.040;2022-12-04T07:41:43;-1.20;99.90
12130;DHT22;6128;59.340;18.040;2022-12-04T07:44:11;-1.20;99.90
12130;DHT22;6128;59.340;18.040;2022-12-04T07:46:39;-1.20;99.90
12130;DHT22;6128;59.340;18.040;2022-12-04T07:49:10;-1.30;99.90
12130;DHT22;6128;59.340;18.040;2022-12-04T07:51:39;-1.20;99.90
12130;DHT22;6128;59.340;18.040;2022-12-04T07:54:08;-1.20;99.90
12130;DHT22;6128;59.340;18.040;2022-12-04T07:56:36;-1.30;99.90
12130;DHT22;6128;59.340;18.040;2022-12-04T07:59:06;-1.20;99.90
12130;DHT22;6128;59.340;18.040;2022-12-04T08:01:34;-1.20;99.90
12130;DHT22;6128;59.340;18.040;2022-12-04T08:04:01;-1.20;99.90
12130;DHT22;6128;59.340;18.040;2022-12-04T08:06:32;-1.30;99.90
12130;DHT22;6128;59.340;18.040;2022-12-04T08:09:00;-1.20;99.90
12130;DHT22;6128;59.340;18.040;2022-12-04T08:11:30;-1.20;99.90
12130;DHT22;6128;59.340;18.040;2022-12-04T08:13:59;-1.30;99.90
12130;DHT22;6128;59.340;18.040;2022-12-04T08:16:29;-1.20;99.90
12130;DHT22;6128;59.340;18.040;2022-12-04T08:18:57;-1.20;99.90
12130;DHT22;6128;59.340;18.040;2022-12-04T08:21:27;-1.20;99.90
12130;DHT22;6128;59.340;18.040;2022-12-04T08:23:55;-1.20;99.90
12130;DHT22;6128;59.340;18.040;2022-12-04T08:26:25;-1.20;99.90
12130;DHT22;6128;59.340;18.040;2022-12-04T08:29:03;-1.20;99.90
12130;DHT22;6128;59.340;18.040;2022-12-04T08:31:37;-1.20;99.90
12130;DHT22;6128;59.340;18.040;2022-12-04T08:34:05;-1.20;99.90
12130;DHT22;6128;59.340;18.040;2022-12-04T08:36:34;-1.20;99.90
12130;DHT22;6128;59.340;18.040;2022-12-04T08:39:02;-1.30;99.90
12130;DHT22;6128;59.340;18.040;2022-12-04T08:41:30;-1.30;99.90
12130;DHT22;6128;59.340;18.040;2022-12-04T08:43:59;-1.30;99.90
12130;DHT22;6128;59.340;18.040;2022-12-04T08:46:27;-1.30;99.90
12130;DHT22;6128;59.340;18.040;2022-12-04T08:48:57;-1.20;99.90
12130;DHT22;6128;59.340;18.040;2022-12-04T08:51:28;-1.20;99.90
12130;DHT22;6128;59.340;18.040;2022-12-04T08:54:01;-1.20;99.90
12130;DHT22;6128;59.340;18.040;2022-12-04T08:56:31;-1.20;99.90
12130;DHT22;6128;59.340;18.040;2022-12-04T08:59:01;-1.20;99.90
12130;DHT22;6128;59.340;18.040;2022-12-04T09:01:29;-1.20;99.90
12130;DHT22;6128;59.340;18.040;2022-12-04T09:03:57;-1.20;99.90
12130;DHT22;6128;59.340;18.040;2022-12-04T09:06:25;-1.10;99.90
12130;DHT22;6128;59.340;18.040;2022-12-04T09:08:53;-1.10;99.90
12130;DHT22;6128;59.340;18.040;2022-12-04T09:11:22;-1.10;99.90
12130;DHT22;6128;59.340;18.040;2022-12-04T09:13:51;-1.20;99.90
12130;DHT22;6128;59.340;18.040;2022-12-04T09:16:23;-1.10;99.90
12130;DHT22;6128;59.340;18.040;2022-12-04T09:18:51;-1.10;99.90
12130;DHT22;6128;59.340;18.040;2022-12-04T09:21:22;-1.10;99.90
12130;DHT22;6128;59.340;18.040;2022-12-04T09:23:54;-1.10;99.90
12130;DHT22;6128;59.340;18.040;2022-12-04T09:26:23;-1.10;99.90
12130;DHT22;6128;59.340;18.040;2022-12-04T09:28:52;-1.20;99.90
12130;DHT22;6128;59.340;18.040;2022-12-04T09:31:36;-1.20;99.90
12130;DHT22;6128;59.340;18.040;2022-12-04T09:34:03;-1.10;99.90
12130;DHT22;6128;59.340;18.040;2022-12-04T09:36:31;-1.10;99.90
12130;DHT22;6128;59.340;18.040;2022-12-04T09:38:59;-1.10;99.90
12130;DHT22;6128;59.340;18.040;2022-12-04T09:41:50;-1.00;99.90
12130;DHT22;6128;59.340;18.040;2022-12-04T09:44:28;-1.00;99.90
12130;DHT22;6128;59.340;18.040;2022-12-04T09:47:18;-1.10;99.90
12130;DHT22;6128;59.340;18.040;2022-12-04T09:49:50;-1.10;99.90
12130;DHT22;6128;59.340;18.040;2022-12-04T09:52:30;-1.00;99.90
12130;DHT22;6128;59.340;18.040;2022-12-04T09:55:05;-1.00;99.90
12130;DHT22;6128;59.340;18.040;2022-12-04T09:57:45;-1.10;99.90
12130;DHT22;6128;59.340;18.040;2022-12-04T10:00:16;-1.00;99.90
12130;DHT22;6128;59.340;18.040;2022-12-04T10:02:50;-1.00;99.90
12130;DHT22;6128;59.340;18.040;2022-12-04T10:05:31;-1.00;99.90
12130;DHT22;6128;59.340;18.040;2022-12-04T10:08:07;-1.00;99.90
12130;DHT22;6128;59.340;18.040;2022-12-04T10:10:38;-1.00;99.90
12130;DHT22;6128;59.340;18.040;2022-12-04T10:13:28;-0.90;99.90
12130;DHT22;6128;59.340;18.040;2022-12-04T10:16:07;-1.00;99.90
12130;DHT22;6128;59.340;18.040;2022-12-04T10:18:45;-0.90;99.90
12130;DHT22;6128;59.340;18.040;2022-12-04T10:21:34;-1.00;99.90
12130;DHT22;6128;59.340;18.040;2022-12-04T10:24:15;-1.00;99.90
12130;DHT22;6128;59.340;18.040;2022-12-04T10:26:47;-1.00;99.90
12130;DHT22;6128;59.340;18.040;2022-12-04T10:29:20;-1.10;99.90
12130;DHT22;6128;59.340;18.040;2022-12-04T10:31:50;-1.10;99.90
12130;DHT22;6128;59.340;18.040;2022-12-04T10:34:29;-1.10;99.90
12130;DHT22;6128;59.340;18.040;2022-12-04T10:36:59;-1.10;99.90
12130;DHT22;6128;59.340;18.040;2022-12-04T10:39:30;-1.20;99.90
12130;DHT22;6128;59.340;18.040;2022-12-04T10:42:05;-1.20;99.90
12130;DHT22;6128;59.340;18.040;2022-12-04T10:44:38;-1.20;99.90
12130;DHT22;6128;59.340;18.040;2022-12-04T10:47:05;-1.20;99.90
12130;DHT22;6128;59.340;18.040;2022-12-04T10:49:35;-1.20;99.90
12130;DHT22;6128;59.340;18.040;2022-12-04T10:52:03;-1.20;99.90
12130;DHT22;6128;59.340;18.040;2022-12-04T10:54:32;-1.20;99.90
12130;DHT22;6128;59.340;18.040;2022-12-04T10:57:02;-1.20;99.90
12130;DHT22;6128;59.340;18.040;2022-12-04T10:59:30;-1.20;99.90
12130;DHT22;6128;59.340;18.040;2022-12-04T11:02:00;-1.20;99.90
12130;DHT22;6128;59.340;18.040;2022-12-04T11:04:30;-1.20;99.90
12130;DHT22;6128;59.340;18.040;2022-12-04T11:07:04;-1.20;99.90
12130;DHT22;6128;59.340;18.040;2022-12-04T11:09:33;-1.20;99.90
12130;DHT22;6128;59.340;18.040;2022-12-04T11:12:06;-1.20;99.90
12130;DHT22;6128;59.340;18.040;2022-12-04T11:14:35;-1.10;99.90
12130;DHT22;6128;59.340;18.040;2022-12-04T11:17:04;-1.10;99.90
12130;DHT22;6128;59.340;18.040;2022-12-04T11:19:33;-1.10;99.90
12130;DHT22;6128;59.340;18.040;2022-12-04T11:22:10;-1.10;99.90
12130;DHT22;6128;59.340;18.040;2022-12-04T11:24:39;-1.00;99.90
12130;DHT22;6128;59.340;18.040;2022-12-04T11:27:15;-1.00;99.90
12130;DHT22;6128;59.340;18.040;2022-12-04T11:29:45;-0.90;99.90
12130;DHT22;6128;59.340;18.040;2022-12-04T11:32:21;-0.90;99.90
12130;DHT22;6128;59.340;18.040;2022-12-04T11:34:50;-0.80;99.90
12130;DHT22;6128;59.340;18.040;2022-12-04T11:37:23;-0.80;99.90
12130;DHT22;6128;59.340;18.040;2022-12-04T11:39:52;-0.80;99.90
12130;DHT22;6128;59.340;18.040;2022-12-04T11:42:23;-0.70;99.90
12130;DHT22;6128;59.340;18.040;2022-12-04T11:44:55;-0.70;99.90
12130;DHT22;6128;59.340;18.040;2022-12-04T11:47:25;-0.60;99.90
12130;DHT22;6128;59.340;18.040;2022-12-04T11:50:02;-0.50;99.90
12130;DHT22;6128;59.340;18.040;2022-12-04T11:52:48;-0.60;99.90
12130;DHT22;6128;59.340;18.040;2022-12-04T11:55:20;-0.50;99.90
12130;DHT22;6128;59.340;18.040;2022-12-04T12:00:52;-0.50;99.90
12130;DHT22;6128;59.340;18.040;2022-12-04T12:03:26;-0.50;99.90
12130;DHT22;6128;59.340;18.040;2022-12-04T12:06:18;-0.50;99.90
12130;DHT22;6128;59.340;18.040;2022-12-04T12:09:05;-0.60;99.90
12130;DHT22;6128;59.340;18.040;2022-12-04T12:11:40;-0.70;99.90
12130;DHT22;6128;59.340;18.040;2022-12-04T12:14:15;-0.70;99.90
12130;DHT22;6128;59.340;18.040;2022-12-04T12:16:53;-0.60;99.90
12130;DHT22;6128;59.340;18.040;2022-12-04T12:19:54;-0.60;99.90
12130;DHT22;6128;59.340;18.040;2022-12-04T12:22:41;-0.50;99.90
12130;DHT22;6128;59.340;18.040;2022-12-04T12:25:18;-0.50;99.90
12130;DHT22;6128;59.340;18.040;2022-12-04T12:28:02;-0.60;99.90
12130;DHT22;6128;59.340;18.040;2022-12-04T12:30:38;-0.50;99.90
12130;DHT22;6128;59.340;18.040;2022-12-04T12:33:16;-0.50;99.90
12130;DHT22;6128;59.340;18.040;2022-12-04T12:35:49;-0.50;99.90
12130;DHT22;6128;59.340;18.040;2022-12-04T12:38:23;-0.60;99.90
12130;DHT22;6128;59.340;18.040;2022-12-04T12:40:57;-0.70;99.90
12130;DHT22;6128;59.340;18.040;2022-12-04T12:43:27;-0.80;99.90
12130;DHT22;6128;59.340;18.040;2022-12-04T12:46:01;-0.80;99.90
12130;DHT22;6128;59.340;18.040;2022-12-04T12:48:34;-0.80;99.90
12130;DHT22;6128;59.340;18.040;2022-12-04T12:51:09;-0.80;99.90
12130;DHT22;6128;59.340;18.040;2022-12-04T12:53:42;-0.80;99.90
12130;DHT22;6128;59.340;18.040;2022-12-04T12:56:15;-0.90;99.90
12130;DHT22;6128;59.340;18.040;2022-12-04T12:58:47;-0.90;99.90
12130;DHT22;6128;59.340;18.040;2022-12-04T13:01:20;-0.80;99.90
12130;DHT22;6128;59.340;18.040;2022-12-04T13:03:52;-0.80;99.90
12130;DHT22;6128;59.340;18.040;2022-12-04T13:06:26;-1.00;99.90
12130;DHT22;6128;59.340;18.040;2022-12-04T13:09:02;-1.00;99.90
12130;DHT22;6128;59.340;18.040;2022-12-04T13:11:33;-1.00;99.90
12130;DHT22;6128;59.340;18.040;2022-12-04T13:14:02;-1.00;99.90
12130;DHT22;6128;59.340;18.040;2022-12-04T13:16:34;-1.00;99.90
12130;DHT22;6128;59.340;18.040;2022-12-04T13:19:08;-1.00;99.90
12130;DHT22;6128;59.340;18.040;2022-12-04T13:21:39;-1.00;99.90
12130;DHT22;6128;59.340;18.040;2022-12-04T13:27:15;-1.10;99.90
12130;DHT22;6128;59.340;18.040;2022-12-04T13:29:56;-1.10;99.90
12130;DHT22;6128;59.340;18.040;2022-12-04T13:32:46;-1.10;99.90
12130;DHT22;6128;59.340;18.040;2022-12-04T13:35:22;-1.00;99.90
12130;DHT22;6128;59.340;18.040;2022-12-04T13:38:10;-1.00;99.90
12130;DHT22;6128;59.340;18.040;2022-12-04T13:40:41;-0.90;99.90
12130;DHT22;6128;59.340;18.040;2022-12-04T13:43:21;-0.90;99.90
12130;DHT22;6128;59.340;18.040;2022-12-04T13:45:55;-0.90;99.90
12130;DHT22;6128;59.340;18.040;2022-12-04T13:48:37;-0.90;99.90
12130;DHT22;6128;59.340;18.040;2022-12-04T13:51:32;-1.00;99.90
12130;DHT22;6128;59.340;18.040;2022-12-04T13:54:20;-1.00;99.90
12130;DHT22;6128;59.340;18.040;2022-12-04T13:56:50;-1.00;99.90
12130;DHT22;6128;59.340;18.040;2022-12-04T13:59:32;-1.00;99.90
12130;DHT22;6128;59.340;18.040;2022-12-04T14:02:02;-1.00;99.90
12130;DHT22;6128;59.340;18.040;2022-12-04T14:04:32;-1.00;99.90
12130;DHT22;6128;59.340;18.040;2022-12-04T14:07:03;-1.00;99.90
12130;DHT22;6128;59.340;18.040;2022-12-04T14:09:41;-1.00;99.90
12130;DHT22;6128;59.340;18.040;2022-12-04T14:12:10;-1.00;99.90
12130;DHT22;6128;59.340;18.040;2022-12-04T14:14:42;-1.00;99.90
12130;DHT22;6128;59.340;18.040;2022-12-04T14:17:17;-1.00;99.90
12130;DHT22;6128;59.340;18.040;2022-12-04T14:19:52;-1.00;99.90
12130;DHT22;6128;59.340;18.040;2022-12-04T14:22:37;-1.00;99.90
12130;DHT22;6128;59.340;18.040;2022-12-04T14:25:31;-1.00;99.90
12130;DHT22;6128;59.340;18.040;2022-12-04T14:28:12;-1.00;99.90
12130;DHT22;6128;59.340;18.040;2022-12-04T14:30:43;-1.00;99.90
12130;DHT22;6128;59.340;18.040;2022-12-04T14:33:16;-1.00;99.90
12130;DHT22;6128;59.340;18.040;2022-12-04T14:35:47;-1.00;99.90
12130;DHT22;6128;59.340;18.040;2022-12-04T14:38:17;-1.00;99.90
12130;DHT22;6128;59.340;18.040;2022-12-04T14:40:48;-1.00;99.90
12130;DHT22;6128;59.340;18.040;2022-12-04T14:43:19;-1.00;99.90
12130;DHT22;6128;59.340;18.040;2022-12-04T14:45:52;-1.00;99.90
12130;DHT22;6128;59.340;18.040;2022-12-04T14:48:32;-1.00;99.90
12130;DHT22;6128;59.340;18.040;2022-12-04T14:51:07;-1.00;99.90
12130;DHT22;6128;59.340;18.040;2022-12-04T14:53:42;-1.10;99.90
12130;DHT22;6128;59.340;18.040;2022-12-04T14:56:24;-1.10;99.90
12130;DHT22;6128;59.340;18.040;2022-12-04T14:58:55;-1.00;99.90
12130;DHT22;6128;59.340;18.040;2022-12-04T15:01:26;-1.10;99.90
12130;DHT22;6128;59.340;18.040;2022-12-04T15:04:06;-1.10;99.90
12130;DHT22;6128;59.340;18.040;2022-12-04T15:06:38;-1.10;99.90
12130;DHT22;6128;59.340;18.040;2022-12-04T15:09:15;-1.20;99.90
12130;DHT22;6128;59.340;18.040;2022-12-04T15:12:00;-1.20;99.90
12130;DHT22;6128;59.340;18.040;2022-12-04T15:14:58;-1.10;99.90
12130;DHT22;6128;59.340;18.040;2022-12-04T15:17:28;-1.10;99.90
12130;DHT22;6128;59.340;18.040;2022-12-04T15:20:07;-1.20;99.90
12130;DHT22;6128;59.340;18.040;2022-12-04T15:22:34;-1.20;99.90
12130;DHT22;6128;59.340;18.040;2022-12-04T15:25:02;-1.20;99.90
12130;DHT22;6128;59.340;18.040;2022-12-04T15:27:30;-1.20;99.90
12130;DHT22;6128;59.340;18.040;2022-12-04T15:29:58;-1.20;99.90
12130;DHT22;6128;59.340;18.040;2022-12-04T15:32:29;-1.20;99.90
12130;DHT22;6128;59.340;18.040;2022-12-04T15:34:59;-1.20;99.90
12130;DHT22;6128;59.340;18.040;2022-12-04T15:37:30;-1.30;99.90
12130;DHT22;6128;59.340;18.040;2022-12-04T15:39:58;-1.20;99.90
12130;DHT22;6128;59.340;18.040;2022-12-04T15:42:28;-1.30;99.90
12130;DHT22;6128;59.340;18.040;2022-12-04T15:44:57;-1.30;99.90
12130;DHT22;6128;59.340;18.040;2022-12-04T15:47:28;-1.30;99.90
12130;DHT22;6128;59.340;18.040;2022-12-04T15:50:07;-1.30;99.90
12130;DHT22;6128;59.340;18.040;2022-12-04T15:52:35;-1.20;99.90
12130;DHT22;6128;59.340;18.040;2022-12-04T15:55:06;-1.30;99.90
12130;DHT22;6128;59.340;18.040;2022-12-04T15:57:36;-1.20;99.90
12130;DHT22;6128;59.340;18.040;2022-12-04T16:00:17;-1.20;99.90
12130;DHT22;6128;59.340;18.040;2022-12-04T16:02:49;-1.20;99.90
12130;DHT22;6128;59.340;18.040;2022-12-04T16:05:27;-1.20;99.90
12130;DHT22;6128;59.340;18.040;2022-12-04T16:07:58;-1.20;99.90
12130;DHT22;6128;59.340;18.040;2022-12-04T16:10:28;-1.30;99.90
12130;DHT22;6128;59.340;18.040;2022-12-04T16:12:56;-1.30;99.90